createdAt,value
2023-01-20T00:04:22.552Z,4.18
2023-01-20T00:11:54.289Z,3.83
2023-01-20T00:19:27.477Z,4.13
2023-01-20T00:26:59.267Z,3.97
2023-01-20T00:34:31.030Z,4.03
2023-01-20T00:42:02.745Z,3.72
2023-01-20T00:49:38.212Z,3.47
2023-01-20T00:57:10.087Z,3.22
2023-01-20T01:04:41.809Z,3.42
2023-01-20T01:12:13.601Z,3.40
2023-01-20T01:19:45.342Z,3.42
2023-01-20T01:27:17.207Z,3.05
2023-01-20T01:34:49.073Z,2.97
2023-01-20T01:42:24.953Z,2.90
2023-01-20T01:49:56.897Z,2.78
2023-01-20T01:57:30.125Z,2.45
2023-01-20T02:05:02.476Z,2.50
2023-01-20T02:12:34.276Z,2.78
2023-01-20T02:20:57.091Z,3.00
2023-01-20T02:28:37.124Z,2.45
2023-01-20T02:36:21.494Z,2.47
2023-01-20T02:44:00.839Z,2.20
2023-01-20T02:51:38.850Z,2.03
2023-01-20T02:59:12.174Z,2.70
2023-01-20T03:06:47.371Z,1.80
2023-01-20T03:14:19.189Z,2.65
2023-01-20T03:21:50.980Z,2.10
2023-01-20T03:29:22.747Z,1.85
2023-01-20T03:36:54.482Z,1.83
2023-01-20T03:45:06.830Z,2.20
2023-01-20T03:53:25.920Z,2.00
2023-01-20T04:00:57.801Z,1.58
2023-01-20T04:08:33.773Z,1.60
2023-01-20T04:16:11.958Z,1.70
2023-01-20T04:24:10.034Z,1.92
2023-01-20T04:31:41.782Z,1.63
2023-01-20T04:39:13.619Z,1.83
2023-01-20T04:46:47.238Z,2.30
2023-01-20T04:54:19.050Z,1.83
2023-01-20T05:01:50.924Z,1.45
2023-01-20T05:09:22.812Z,1.38
2023-01-20T05:16:54.725Z,1.67
2023-01-20T05:24:26.578Z,1.75
2023-01-20T05:31:58.332Z,2.10
2023-01-20T05:39:30.089Z,2.20
2023-01-20T05:47:02.424Z,2.08
2023-01-20T05:54:36.404Z,1.90
2023-01-20T06:02:08.826Z,2.65
2023-01-20T06:09:41.012Z,1.60
2023-01-20T06:17:12.827Z,1.77
2023-01-20T06:24:44.603Z,2.25
2023-01-20T06:32:16.374Z,2.10
2023-01-20T06:39:48.161Z,1.75
2023-01-20T06:47:19.912Z,1.85
2023-01-20T06:54:51.723Z,2.00
2023-01-20T07:02:23.521Z,2.03
2023-01-20T07:09:55.501Z,2.28
2023-01-20T07:17:27.378Z,2.15
2023-01-20T07:24:59.126Z,2.28
2023-01-20T07:32:31.102Z,2.05
2023-01-20T07:40:02.854Z,1.92
2023-01-20T07:47:34.616Z,1.63
2023-01-20T07:55:06.840Z,1.88
2023-01-20T08:02:38.991Z,1.75
2023-01-20T08:10:10.770Z,1.80
2023-01-20T08:17:42.506Z,1.85
2023-01-20T08:25:15.201Z,2.00
2023-01-20T08:32:47.133Z,2.60
2023-01-20T08:40:19.016Z,2.03
2023-01-20T08:47:51.035Z,2.10
2023-01-20T08:55:23.423Z,1.88
2023-01-20T09:02:55.149Z,2.42
2023-01-20T09:10:26.984Z,2.10
2023-01-20T09:17:58.919Z,1.98
2023-01-20T09:25:30.671Z,2.10
2023-01-20T09:33:02.487Z,2.50
2023-01-20T09:41:28.316Z,2.05
2023-01-20T09:49:30.454Z,2.35
2023-01-20T09:57:02.240Z,2.28
2023-01-20T10:04:38.649Z,2.13
2023-01-20T10:12:46.053Z,2.20
2023-01-20T10:20:30.138Z,1.77
2023-01-20T10:28:10.886Z,2.25
2023-01-20T10:35:46.545Z,2.28
2023-01-20T10:43:18.280Z,1.73
2023-01-20T10:50:58.317Z,2.00
2023-01-20T10:58:37.284Z,2.05
2023-01-20T11:06:16.328Z,2.83
2023-01-20T11:13:51.521Z,3.40
2023-01-20T11:21:24.879Z,3.97
2023-01-20T11:29:10.764Z,3.30
2023-01-20T11:36:44.679Z,3.80
2023-01-20T11:44:20.489Z,3.50
2023-01-20T11:51:56.253Z,3.88
2023-01-20T11:59:32.578Z,4.55
2023-01-20T12:07:14.385Z,4.43
2023-01-20T12:14:49.286Z,4.88
2023-01-20T12:22:46.463Z,3.97
2023-01-20T12:30:39.368Z,5.10
2023-01-20T12:38:11.982Z,5.07
2023-01-20T12:46:18.742Z,5.22
2023-01-20T12:54:42.997Z,5.38
2023-01-20T13:02:38.418Z,6.20
2023-01-20T13:10:50.923Z,5.95
2023-01-20T13:19:07.339Z,6.82
2023-01-20T13:26:39.088Z,7.22
2023-01-20T13:34:22.903Z,7.65
2023-01-20T13:41:54.730Z,8.48
2023-01-20T13:49:29.086Z,11.10
2023-01-20T13:57:20.411Z,7.60
2023-01-20T14:04:52.479Z,7.10
2023-01-20T14:12:24.468Z,6.15
2023-01-20T14:19:56.260Z,7.05
2023-01-20T14:27:33.539Z,7.18
2023-01-20T14:35:27.403Z,6.93
2023-01-20T14:43:00.963Z,7.30
2023-01-20T14:50:33.607Z,6.80
2023-01-20T14:58:24.211Z,6.50
2023-01-20T15:06:18.563Z,5.97
2023-01-20T15:13:53.346Z,6.10
2023-01-20T15:21:27.148Z,6.53
2023-01-20T15:28:58.979Z,6.00
2023-01-20T15:36:33.148Z,5.60
2023-01-20T15:44:05.128Z,5.72
2023-01-20T15:51:38.603Z,7.18
2023-01-20T15:59:18.198Z,6.55
2023-01-20T16:06:49.964Z,6.75
2023-01-20T16:14:21.788Z,6.47
2023-01-20T16:21:53.577Z,5.97
2023-01-20T16:29:25.340Z,7.45
2023-01-20T16:36:57.086Z,7.22
2023-01-20T16:44:29.651Z,6.45
2023-01-20T16:52:01.435Z,7.13
2023-01-20T16:59:33.448Z,5.93
2023-01-20T17:07:06.579Z,5.85
2023-01-20T17:14:38.388Z,6.10
2023-01-20T17:22:10.185Z,6.07
2023-01-20T17:29:43.109Z,5.55
2023-01-20T17:37:15.145Z,6.13
2023-01-20T17:44:46.837Z,5.35
2023-01-20T17:52:20.105Z,5.65
2023-01-20T17:59:51.851Z,5.30
2023-01-20T18:07:23.846Z,4.80
2023-01-20T18:14:55.677Z,6.95
2023-01-20T18:22:27.639Z,5.55
2023-01-20T18:29:59.595Z,7.32
2023-01-20T18:37:31.410Z,5.28
2023-01-20T18:45:03.560Z,5.57
2023-01-20T18:52:35.381Z,5.85
2023-01-20T19:00:08.386Z,5.05
2023-01-20T19:07:40.205Z,5.32
2023-01-20T19:15:12.112Z,5.55
2023-01-20T19:22:43.899Z,4.30
2023-01-20T19:30:16.610Z,5.78
2023-01-20T19:37:48.697Z,5.80
2023-01-20T19:45:20.595Z,5.00
2023-01-20T19:52:52.372Z,5.65
2023-01-20T20:00:24.115Z,4.68
2023-01-20T20:07:55.889Z,4.47
2023-01-20T20:15:27.710Z,4.60
2023-01-20T20:22:59.573Z,4.80
2023-01-20T20:30:31.367Z,4.95
2023-01-20T20:38:04.060Z,4.72
2023-01-20T20:45:36.216Z,4.53
2023-01-20T20:53:08.217Z,4.60
2023-01-20T21:00:40.234Z,4.47
2023-01-20T21:08:12.109Z,4.88
2023-01-20T21:15:44.072Z,4.65
2023-01-20T21:23:16.019Z,4.35
2023-01-20T21:30:48.007Z,4.47
2023-01-20T21:38:19.966Z,4.28
2023-01-20T21:45:53.371Z,4.60
2023-01-20T21:53:25.098Z,4.32
2023-01-20T22:00:56.944Z,4.22
2023-01-20T22:08:28.799Z,4.85
2023-01-20T22:16:04.179Z,3.60
2023-01-20T22:23:35.953Z,3.83
2023-01-20T22:31:13.117Z,3.50
2023-01-20T22:38:47.243Z,3.55
2023-01-20T22:46:20.363Z,3.00
2023-01-20T22:54:00.147Z,2.92
2023-01-20T23:01:33.880Z,3.20
2023-01-20T23:09:08.631Z,3.05
2023-01-20T23:16:41.059Z,2.85
2023-01-20T23:24:12.851Z,3.05
2023-01-20T23:31:44.688Z,3.28
2023-01-20T23:39:16.433Z,3.30
2023-01-20T23:46:48.177Z,2.63
2023-01-20T23:54:20.022Z,2.50
